createdAt,value
2018-11-27T00:00:18.857Z,10.40
2018-11-27T00:02:47.160Z,8.33
2018-11-27T00:05:15.488Z,10.63
2018-11-27T00:07:43.600Z,7.27
2018-11-27T00:10:11.681Z,6.97
2018-11-27T00:12:39.824Z,7.03
2018-11-27T00:15:11.528Z,10.80
2018-11-27T00:17:39.624Z,9.13
2018-11-27T00:20:12.172Z,8.90
2018-11-27T00:22:40.328Z,8.03
2018-11-27T00:25:10.401Z,7.00
2018-11-27T00:27:38.481Z,9.40
2018-11-27T00:30:10.912Z,9.20
2018-11-27T00:32:39.218Z,8.13
2018-11-27T00:35:08.922Z,9.80
2018-11-27T00:37:37.028Z,8.23
2018-11-27T00:40:09.438Z,8.10
2018-11-27T00:42:37.516Z,7.30
2018-11-27T00:45:07.987Z,6.97
2018-11-27T00:47:36.117Z,7.10
2018-11-27T00:50:07.228Z,7.30
2018-11-27T00:52:35.296Z,8.90
2018-11-27T00:55:03.364Z,8.20
2018-11-27T00:57:31.476Z,9.43
2018-11-27T00:59:59.627Z,6.07
2018-11-27T01:02:27.702Z,8.07
2018-11-27T01:04:55.811Z,7.37
2018-11-27T01:07:23.909Z,7.47
2018-11-27T01:09:51.982Z,8.53
2018-11-27T01:12:20.072Z,7.17
2018-11-27T01:14:48.200Z,7.10
2018-11-27T01:17:16.288Z,8.40
2018-11-27T01:19:44.347Z,8.00
2018-11-27T01:22:12.409Z,8.07
2018-11-27T01:24:40.508Z,6.43
2018-11-27T01:27:08.600Z,6.30
2018-11-27T01:29:36.688Z,5.47
2018-11-27T01:32:04.750Z,8.27
2018-11-27T01:34:32.857Z,7.37
2018-11-27T01:37:00.908Z,8.73
2018-11-27T01:39:28.989Z,6.57
2018-11-27T01:41:57.040Z,8.33
2018-11-27T01:44:25.117Z,5.67
2018-11-27T01:46:54.265Z,5.23
2018-11-27T01:49:22.368Z,8.63
2018-11-27T01:51:50.448Z,5.37
2018-11-27T01:54:18.527Z,7.73
2018-11-27T01:56:46.593Z,7.17
2018-11-27T01:59:14.761Z,8.00
2018-11-27T02:01:42.811Z,8.07
2018-11-27T02:04:10.934Z,8.03
2018-11-27T02:06:39.020Z,6.40
2018-11-27T02:09:08.170Z,6.03
2018-11-27T02:11:36.572Z,7.27
2018-11-27T02:14:04.676Z,6.33
2018-11-27T02:16:32.786Z,4.97
2018-11-27T02:19:00.857Z,6.83
2018-11-27T02:21:28.986Z,6.37
2018-11-27T02:23:57.061Z,6.33
2018-11-27T02:26:25.140Z,6.30
2018-11-27T02:28:53.280Z,7.40
2018-11-27T02:31:21.385Z,7.50
2018-11-27T02:33:49.550Z,5.93
2018-11-27T02:36:17.640Z,6.97
2018-11-27T02:38:45.716Z,7.23
2018-11-27T02:41:13.800Z,6.87
2018-11-27T02:43:41.861Z,7.50
2018-11-27T02:46:10.016Z,7.40
2018-11-27T02:48:38.112Z,6.17
2018-11-27T02:51:06.186Z,7.83
2018-11-27T02:53:34.342Z,7.80
2018-11-27T02:56:02.473Z,8.03
2018-11-27T02:58:30.556Z,7.73
2018-11-27T03:00:58.629Z,6.77
2018-11-27T03:03:26.696Z,6.30
2018-11-27T03:05:54.785Z,7.57
2018-11-27T03:08:22.885Z,8.77
2018-11-27T03:10:50.960Z,7.00
2018-11-27T03:13:19.090Z,9.13
2018-11-27T03:15:47.156Z,5.40
2018-11-27T03:18:15.552Z,7.30
2018-11-27T03:20:43.641Z,7.57
2018-11-27T03:23:11.808Z,7.30
2018-11-27T03:25:39.896Z,6.50
2018-11-27T03:28:08.035Z,6.63
2018-11-27T03:30:37.177Z,5.23
2018-11-27T03:33:05.450Z,6.40
2018-11-27T03:35:33.520Z,7.83
2018-11-27T03:38:01.614Z,6.53
2018-11-27T03:40:29.703Z,6.20
2018-11-27T03:42:58.009Z,6.33
2018-11-27T03:45:26.374Z,5.97
2018-11-27T03:47:54.439Z,6.93
2018-11-27T03:50:26.677Z,5.97
2018-11-27T03:52:54.779Z,6.17
2018-11-27T03:55:22.899Z,7.80
2018-11-27T03:57:51.024Z,6.20
2018-11-27T04:00:20.364Z,6.90
2018-11-27T04:02:49.964Z,8.37
2018-11-27T04:05:18.052Z,5.87
2018-11-27T04:07:50.416Z,6.00
2018-11-27T04:10:22.179Z,18.07
2018-11-27T04:12:50.733Z,9.53
2018-11-27T04:15:18.824Z,7.90
2018-11-27T04:17:47.017Z,8.60
2018-11-27T04:20:15.189Z,6.70
2018-11-27T04:22:43.716Z,5.87
2018-11-27T04:25:13.869Z,6.13
2018-11-27T04:27:42.016Z,7.23
2018-11-27T04:30:12.490Z,4.90
2018-11-27T04:32:40.727Z,5.33
2018-11-27T04:35:11.682Z,6.23
2018-11-27T04:37:39.775Z,7.53
2018-11-27T04:40:10.222Z,4.67
2018-11-27T04:42:38.329Z,6.80
2018-11-27T04:45:12.123Z,5.37
2018-11-27T04:47:40.193Z,5.40
2018-11-27T04:50:11.040Z,8.57
2018-11-27T04:52:39.144Z,4.80
2018-11-27T04:55:08.905Z,4.60
2018-11-27T04:57:36.993Z,6.37
2018-11-27T05:00:10.604Z,6.23
2018-11-27T05:02:38.970Z,5.07
2018-11-27T05:05:07.659Z,5.00
2018-11-27T05:07:35.758Z,6.70
2018-11-27T05:10:06.247Z,5.60
2018-11-27T05:12:34.368Z,5.73
2018-11-27T05:15:02.672Z,6.27
2018-11-27T05:17:30.752Z,4.90
2018-11-27T05:19:58.840Z,7.13
2018-11-27T05:22:27.000Z,5.73
2018-11-27T05:24:55.056Z,4.73
2018-11-27T05:27:23.152Z,5.20
2018-11-27T05:29:51.224Z,5.63
2018-11-27T05:32:19.378Z,3.73
2018-11-27T05:34:47.536Z,5.10
2018-11-27T05:37:15.609Z,6.03
2018-11-27T05:39:43.929Z,10.10
2018-11-27T05:42:12.068Z,5.10
2018-11-27T05:44:40.137Z,6.33
2018-11-27T05:47:08.239Z,4.37
2018-11-27T05:49:36.352Z,5.70
2018-11-27T05:52:04.780Z,5.93
2018-11-27T05:54:32.862Z,7.13
2018-11-27T05:57:00.936Z,4.73
2018-11-27T05:59:28.990Z,6.57
2018-11-27T06:01:57.102Z,5.63
2018-11-27T06:04:25.485Z,3.93
2018-11-27T06:06:53.595Z,5.47
2018-11-27T06:09:21.806Z,4.47
2018-11-27T06:11:49.918Z,6.40
2018-11-27T06:14:18.004Z,5.63
2018-11-27T06:16:46.104Z,4.87
2018-11-27T06:19:14.192Z,4.70
2018-11-27T06:21:42.264Z,4.47
2018-11-27T06:24:10.376Z,5.50
2018-11-27T06:26:38.761Z,5.83
2018-11-27T06:29:07.066Z,4.37
2018-11-27T06:31:35.164Z,5.30
2018-11-27T06:34:03.272Z,5.27
2018-11-27T06:36:31.360Z,4.47
2018-11-27T06:38:59.470Z,5.80
2018-11-27T06:41:27.797Z,6.43
2018-11-27T06:43:55.925Z,7.27
2018-11-27T06:46:24.108Z,9.20
2018-11-27T06:48:52.295Z,7.80
2018-11-27T06:51:20.620Z,8.07
2018-11-27T06:53:48.816Z,7.63
2018-11-27T06:56:17.141Z,8.17
2018-11-27T06:58:45.352Z,7.13
2018-11-27T07:01:13.592Z,6.53
2018-11-27T07:03:42.172Z,5.30
2018-11-27T07:06:10.800Z,5.57
2018-11-27T07:50:52.068Z,3.80
2018-11-27T07:53:20.201Z,3.80
2018-11-27T07:55:48.292Z,5.43
2018-11-27T07:58:16.469Z,4.10
2018-11-27T08:00:44.889Z,2.93
2018-11-27T08:03:13.045Z,5.03
2018-11-27T08:05:41.562Z,4.13
2018-11-27T08:08:15.229Z,4.13
2018-11-27T08:10:45.231Z,5.37
2018-11-27T08:13:13.398Z,4.07
2018-11-27T08:15:41.541Z,3.70
2018-11-27T08:18:10.493Z,5.47
2018-11-27T08:20:38.677Z,6.27
2018-11-27T08:23:07.994Z,3.80
2018-11-27T08:25:36.193Z,3.50
2018-11-27T08:28:04.984Z,4.90
2018-11-27T08:30:33.409Z,3.87
2018-11-27T08:33:01.817Z,5.23
2018-11-27T08:35:30.393Z,4.57
2018-11-27T08:37:59.720Z,9.13
2018-11-27T08:40:30.757Z,4.13
2018-11-27T08:42:59.117Z,3.50
2018-11-27T08:45:27.357Z,4.03
2018-11-27T08:47:56.143Z,3.47
2018-11-27T08:50:25.545Z,3.47
2018-11-27T08:52:56.358Z,3.00
2018-11-27T08:55:26.097Z,5.30
2018-11-27T08:57:54.701Z,3.07
2018-11-27T09:00:23.889Z,3.00
2018-11-27T09:02:52.251Z,2.67
2018-11-27T09:07:58.491Z,3.60
2018-11-27T09:10:27.158Z,4.87
2018-11-27T09:12:55.594Z,3.27
2018-11-27T09:18:18.284Z,5.20
2018-11-27T09:20:46.933Z,4.87
2018-11-27T09:23:15.721Z,2.97
2018-11-27T09:25:43.892Z,2.50
2018-11-27T09:28:13.174Z,5.30
2018-11-27T09:30:41.323Z,4.13
2018-11-27T09:33:09.591Z,6.67
2018-11-27T09:35:37.838Z,9.00
2018-11-27T09:38:06.484Z,7.00
2018-11-27T09:40:34.641Z,4.53
2018-11-27T09:43:02.789Z,6.83
2018-11-27T09:45:31.242Z,4.70
2018-11-27T09:47:59.822Z,3.33
2018-11-27T09:50:27.927Z,4.43
2018-11-27T09:55:31.397Z,4.70
2018-11-27T09:57:59.583Z,4.47
2018-11-27T10:00:30.218Z,4.77
2018-11-27T10:03:00.865Z,3.90
2018-11-27T10:05:29.130Z,4.77
2018-11-27T10:07:57.342Z,3.63
2018-11-27T10:10:26.300Z,4.50
2018-11-27T10:12:54.647Z,6.07
2018-11-27T10:15:27.677Z,4.67
2018-11-27T10:18:00.731Z,4.47
2018-11-27T10:20:43.505Z,4.13
2018-11-27T10:23:12.900Z,4.97
2018-11-27T10:25:41.047Z,5.30
2018-11-27T10:28:09.198Z,5.73
2018-11-27T10:30:37.308Z,5.63
2018-11-27T10:33:10.878Z,4.73
2018-11-27T10:35:49.390Z,4.67
2018-11-27T10:38:17.528Z,6.10
2018-11-27T10:40:45.904Z,4.40
2018-11-27T10:43:19.494Z,6.43
2018-11-27T10:45:42.126Z,4.47
2018-11-27T10:48:10.259Z,4.10
2018-11-27T10:50:43.872Z,5.57
2018-11-27T10:55:50.482Z,5.53
2018-11-27T10:58:18.600Z,5.47
2018-11-27T11:00:52.369Z,3.97
2018-11-27T11:03:24.381Z,6.43
2018-11-27T11:05:53.953Z,6.50
2018-11-27T11:08:23.029Z,4.57
2018-11-27T11:10:51.202Z,5.63
2018-11-27T11:13:19.423Z,4.67
2018-11-27T11:15:47.825Z,5.30
2018-11-27T11:18:15.990Z,5.37
2018-11-27T11:20:44.152Z,4.30
2018-11-27T11:23:12.321Z,5.70
2018-11-27T11:25:40.712Z,4.93
2018-11-27T11:28:09.848Z,6.07
2018-11-27T11:30:38.302Z,5.13
2018-11-27T11:33:07.733Z,5.10
2018-11-27T11:35:37.242Z,5.13
2018-11-27T11:38:05.894Z,5.00
2018-11-27T11:40:34.405Z,5.40
2018-11-27T11:43:03.754Z,4.73
2018-11-27T11:45:31.956Z,6.67
2018-11-27T11:48:00.100Z,5.90
2018-11-27T11:50:30.603Z,4.47
2018-11-27T11:53:04.722Z,5.60
2018-11-27T11:55:33.255Z,5.87
2018-11-27T11:58:01.536Z,6.87
2018-11-27T12:00:32.608Z,6.07
2018-11-27T12:03:01.103Z,9.63
2018-11-27T12:05:29.293Z,6.03
2018-11-27T12:07:57.588Z,6.57
2018-11-27T12:10:25.745Z,7.33
2018-11-27T12:12:53.887Z,6.13
2018-11-27T12:15:22.128Z,5.30
2018-11-27T12:17:50.402Z,5.90
2018-11-27T12:20:19.470Z,6.50
2018-11-27T12:26:18.652Z,5.43
2018-11-27T12:31:47.842Z,8.17
2018-11-27T12:34:16.674Z,8.33
2018-11-27T12:36:44.788Z,7.50
2018-11-27T12:39:13.173Z,10.47
2018-11-27T12:41:41.505Z,6.80
2018-11-27T12:44:14.585Z,6.83
2018-11-27T12:46:42.784Z,7.43
2018-11-27T12:49:10.957Z,6.10
2018-11-27T12:51:39.545Z,8.60
2018-11-27T12:54:07.738Z,6.57
2018-11-27T12:56:35.891Z,8.37
2018-11-27T12:59:04.037Z,7.83
2018-11-27T13:01:32.137Z,8.23
2018-11-27T13:04:01.413Z,7.33
2018-11-27T13:06:29.599Z,9.83
2018-11-27T13:08:57.779Z,8.40
2018-11-27T13:11:25.929Z,8.87
2018-11-27T13:13:54.110Z,7.30
2018-11-27T13:16:22.221Z,8.47
2018-11-27T13:18:50.401Z,13.40
2018-11-27T13:21:18.516Z,10.47
2018-11-27T13:23:46.614Z,16.47
2018-11-27T13:26:14.732Z,9.13
2018-11-27T13:31:21.625Z,8.60
2018-11-27T13:34:09.225Z,9.73
2018-11-27T13:36:37.330Z,9.63
2018-11-27T13:39:17.213Z,9.20
2018-11-27T13:41:45.316Z,11.10
2018-11-27T13:44:13.412Z,10.80
2018-11-27T13:46:41.501Z,9.60
2018-11-27T13:49:09.696Z,9.60
2018-11-27T13:51:37.818Z,10.53
2018-11-27T13:54:06.075Z,9.90
2018-11-27T13:56:34.358Z,8.77
2018-11-27T13:59:02.426Z,9.10
2018-11-27T14:01:30.572Z,8.67
2018-11-27T14:03:58.785Z,12.27
2018-11-27T14:06:26.886Z,10.37
2018-11-27T14:08:55.648Z,10.47
2018-11-27T14:11:23.872Z,10.47
2018-11-27T14:13:52.553Z,10.07
2018-11-27T14:16:20.678Z,9.87
2018-11-27T14:18:48.899Z,9.97
2018-11-27T14:21:17.162Z,10.13
2018-11-27T14:23:45.421Z,9.13
2018-11-27T14:26:13.518Z,10.70
2018-11-27T14:28:41.655Z,9.60
2018-11-27T14:31:09.753Z,9.97
2018-11-27T14:33:37.896Z,9.80
2018-11-27T14:36:06.073Z,10.67
2018-11-27T14:38:34.200Z,8.10
2018-11-27T14:41:02.317Z,11.53
2018-11-27T14:43:30.472Z,10.17
2018-11-27T14:45:59.032Z,10.10
2018-11-27T14:48:27.206Z,11.33
2018-11-27T14:50:55.381Z,10.03
2018-11-27T14:53:23.479Z,11.90
2018-11-27T14:55:51.553Z,9.93
2018-11-27T14:58:19.668Z,11.97
2018-11-27T15:00:47.867Z,8.60
2018-11-27T15:03:15.971Z,9.47
2018-11-27T15:05:44.145Z,10.80
2018-11-27T15:08:13.160Z,11.60
2018-11-27T15:10:41.309Z,10.13
2018-11-27T15:13:10.463Z,10.77
2018-11-27T15:15:38.569Z,10.47
2018-11-27T15:18:07.047Z,11.30
2018-11-27T15:20:35.221Z,10.87
2018-11-27T15:23:03.583Z,9.50
2018-11-27T15:25:31.729Z,12.73
2018-11-27T15:27:59.929Z,9.20
2018-11-27T15:30:33.510Z,9.83
2018-11-27T15:33:01.600Z,11.53
2018-11-27T15:35:29.697Z,12.90
2018-11-27T15:37:57.938Z,11.97
2018-11-27T15:40:34.662Z,11.37
2018-11-27T15:43:02.754Z,11.73
2018-11-27T15:45:32.658Z,11.53
2018-11-27T15:48:01.031Z,11.10
2018-11-27T15:50:29.186Z,11.83
2018-11-27T15:52:57.303Z,10.77
2018-11-27T15:55:26.596Z,9.40
2018-11-27T15:57:56.435Z,11.67
2018-11-27T16:00:24.535Z,11.90
2018-11-27T16:02:52.658Z,13.37
2018-11-27T16:05:21.381Z,12.47
2018-11-27T16:07:49.497Z,11.90
2018-11-27T16:10:18.885Z,10.97
2018-11-27T16:12:47.008Z,12.97
2018-11-27T16:15:16.062Z,14.17
2018-11-27T16:17:44.169Z,14.77
2018-11-27T16:20:15.099Z,14.40
2018-11-27T16:22:43.657Z,11.57
2018-11-27T16:25:13.672Z,9.80
2018-11-27T16:27:41.844Z,14.00
2018-11-27T16:30:26.895Z,13.33
2018-11-27T16:32:54.992Z,13.30
2018-11-27T16:35:23.344Z,16.83
2018-11-27T16:37:54.432Z,17.83
2018-11-27T16:40:24.256Z,15.43
2018-11-27T16:42:52.375Z,16.50
2018-11-27T16:45:21.503Z,17.60
2018-11-27T16:47:49.860Z,14.77
2018-11-27T16:50:18.296Z,20.70
2018-11-27T16:52:46.635Z,15.87
2018-11-27T16:55:16.736Z,14.63
2018-11-27T16:57:44.812Z,19.13
2018-11-27T17:00:19.330Z,13.53
2018-11-27T17:02:47.961Z,14.50
2018-11-27T17:05:16.080Z,17.63
2018-11-27T17:07:44.200Z,13.30
2018-11-27T17:10:14.444Z,15.77
2018-11-27T17:12:42.955Z,14.57
2018-11-27T17:15:12.252Z,17.30
2018-11-27T17:17:40.557Z,17.03
2018-11-27T17:20:20.098Z,13.60
2018-11-27T17:22:48.201Z,15.43
2018-11-27T17:25:16.289Z,15.00
2018-11-27T17:27:44.529Z,14.07
2018-11-27T17:30:24.972Z,12.97
2018-11-27T17:32:53.672Z,14.17
2018-11-27T17:35:22.443Z,15.70
2018-11-27T17:37:50.540Z,15.83
2018-11-27T17:40:18.867Z,14.60
2018-11-27T17:42:46.961Z,14.83
2018-11-27T17:45:15.504Z,15.50
2018-11-27T17:47:44.338Z,15.87
2018-11-27T17:50:14.375Z,16.67
2018-11-27T17:52:42.940Z,16.30
2018-11-27T17:55:11.908Z,20.97
2018-11-27T17:57:40.128Z,17.20
2018-11-27T18:00:18.651Z,15.50
2018-11-27T18:02:48.567Z,17.43
2018-11-27T18:05:16.708Z,18.30
2018-11-27T18:07:44.862Z,40.17
2018-11-27T18:10:12.934Z,19.03
2018-11-27T18:12:41.033Z,22.40
2018-11-27T18:15:12.470Z,30.80
2018-11-27T18:17:40.561Z,19.90
2018-11-27T18:20:10.049Z,23.50
2018-11-27T18:22:38.170Z,20.37
2018-11-27T18:25:08.382Z,20.30
2018-11-27T18:27:36.697Z,23.20
2018-11-27T18:30:07.757Z,17.43
2018-11-27T18:32:35.864Z,19.30
2018-11-27T18:35:03.985Z,18.90
2018-11-27T18:37:32.126Z,20.47
2018-11-27T18:40:00.273Z,23.40
2018-11-27T18:42:28.404Z,22.73
2018-11-27T18:44:56.532Z,27.13
2018-11-27T18:47:24.696Z,21.47
2018-11-27T18:49:52.784Z,30.43
2018-11-27T18:52:20.945Z,24.67
2018-11-27T18:54:49.039Z,27.00
2018-11-27T18:57:17.165Z,26.53
2018-11-27T18:59:46.297Z,27.53
2018-11-27T19:02:14.384Z,24.20
2018-11-27T19:04:42.480Z,26.23
2018-11-27T19:07:10.585Z,27.93
2018-11-27T19:09:38.656Z,29.17
2018-11-27T19:12:06.752Z,29.90
2018-11-27T19:14:34.865Z,24.10
2018-11-27T19:17:02.990Z,29.53
2018-11-27T19:19:31.080Z,31.47
2018-11-27T19:21:59.200Z,23.37
2018-11-27T19:24:27.288Z,26.33
2018-11-27T19:26:55.416Z,27.10
2018-11-27T19:29:23.508Z,24.57
2018-11-27T19:31:52.165Z,24.17
2018-11-27T19:34:20.409Z,25.27
2018-11-27T19:36:48.585Z,24.70
2018-11-27T19:39:16.760Z,20.97
2018-11-27T19:41:44.952Z,24.77
2018-11-27T19:44:12.988Z,22.93
2018-11-27T19:46:41.123Z,22.22
2018-11-27T19:49:09.262Z,20.50
2018-11-27T19:51:37.414Z,22.30
2018-11-27T19:54:05.719Z,26.77
2018-11-27T19:56:33.921Z,21.63
2018-11-27T19:59:02.076Z,21.17
2018-11-27T20:01:30.302Z,22.20
2018-11-27T20:03:58.421Z,21.83
2018-11-27T20:06:26.829Z,19.90
2018-11-27T20:08:54.981Z,23.50
2018-11-27T20:11:23.097Z,19.70
2018-11-27T20:13:51.309Z,19.00
2018-11-27T20:16:19.479Z,21.43
2018-11-27T20:18:47.825Z,20.80
2018-11-27T20:21:26.372Z,18.43
2018-11-27T20:23:59.002Z,17.40
2018-11-27T20:26:31.668Z,21.07
2018-11-27T20:29:00.613Z,16.87
2018-11-27T20:31:28.730Z,18.73
2018-11-27T20:33:56.905Z,17.30
2018-11-27T20:36:25.726Z,19.93
2018-11-27T20:38:54.196Z,15.80
2018-11-27T20:41:26.050Z,15.93
2018-11-27T20:43:55.451Z,17.93
2018-11-27T20:46:25.763Z,15.00
2018-11-27T20:48:56.290Z,15.47
2018-11-27T20:51:24.400Z,18.73
2018-11-27T20:53:52.540Z,15.00
2018-11-27T20:56:20.749Z,17.10
2018-11-27T20:58:51.170Z,16.63
2018-11-27T21:01:22.283Z,17.10
2018-11-27T21:03:50.451Z,18.17
2018-11-27T21:06:21.861Z,20.13
2018-11-27T21:08:50.020Z,20.70
2018-11-27T21:11:18.400Z,17.37
2018-11-27T21:13:46.630Z,23.10
2018-11-27T21:16:15.524Z,16.27
2018-11-27T21:18:43.753Z,16.47
2018-11-27T21:21:11.893Z,17.63
2018-11-27T21:23:40.244Z,16.67
2018-11-27T21:26:08.380Z,32.03
2018-11-27T21:28:36.514Z,13.27
2018-11-27T21:31:05.990Z,13.80
2018-11-27T21:33:35.073Z,13.80
2018-11-27T21:36:03.854Z,17.13
2018-11-27T21:38:32.141Z,15.00
2018-11-27T21:41:00.377Z,11.90
2018-11-27T21:43:28.937Z,12.47
2018-11-27T21:45:57.270Z,12.30
2018-11-27T21:48:26.199Z,13.20
2018-11-27T21:50:59.523Z,12.40
2018-11-27T21:53:29.140Z,11.60
2018-11-27T21:55:58.502Z,9.70
2018-11-27T21:58:26.699Z,15.60
2018-11-27T22:00:55.466Z,9.07
2018-11-27T22:03:25.627Z,10.73
2018-11-27T22:05:54.090Z,18.73
2018-11-27T22:08:22.225Z,19.13
2018-11-27T22:10:51.644Z,11.67
2018-11-27T22:13:19.969Z,12.83
2018-11-27T22:15:49.140Z,11.13
2018-11-27T22:18:18.333Z,13.30
2018-11-27T22:20:46.550Z,9.80
2018-11-27T22:23:14.961Z,14.37
2018-11-27T22:25:44.036Z,14.23
2018-11-27T22:28:12.776Z,11.17
2018-11-27T22:30:41.041Z,8.67
2018-11-27T22:33:09.491Z,12.80
2018-11-27T22:35:37.894Z,11.83
2018-11-27T22:38:06.871Z,10.25
2018-11-27T22:40:35.565Z,13.93
2018-11-27T22:43:03.709Z,10.47
2018-11-27T22:45:38.370Z,10.03
2018-11-27T22:48:07.930Z,8.80
2018-11-27T22:50:36.110Z,13.63
2018-11-27T22:53:05.153Z,12.37
2018-11-27T22:55:33.232Z,12.37
2018-11-27T22:58:01.345Z,13.30
2018-11-27T23:00:34.873Z,16.13
2018-11-27T23:03:03.074Z,15.57
2018-11-27T23:05:31.149Z,17.37
2018-11-27T23:07:59.283Z,20.13
2018-11-27T23:10:29.714Z,22.93
2018-11-27T23:12:57.957Z,18.47
2018-11-27T23:15:26.135Z,23.10
2018-11-27T23:17:54.325Z,12.27
2018-11-27T23:20:22.493Z,14.27
2018-11-27T23:22:50.644Z,18.83
2018-11-27T23:25:19.183Z,16.93
2018-11-27T23:27:47.712Z,13.33
2018-11-27T23:30:19.708Z,15.63
2018-11-27T23:32:47.973Z,19.67
2018-11-27T23:35:16.100Z,15.77
2018-11-27T23:37:44.215Z,14.37
2018-11-27T23:40:13.527Z,15.27
2018-11-27T23:42:42.127Z,16.87
2018-11-27T23:45:14.026Z,17.10
2018-11-27T23:47:42.165Z,16.97
2018-11-27T23:50:11.310Z,14.83
2018-11-27T23:52:39.376Z,12.67
2018-11-27T23:55:08.590Z,14.17
2018-11-27T23:57:36.912Z,14.03
